Time;durP1;ratioP1;P1;durP2;ratioP2;P2;SDS_P1;SDS_P2;PMS_P1;PMS_P2;Temp;Humidity;BMP_temperature;BMP_pressure;BME280_temperature;BME280_humidity;BME280_pressure;Samples;Min_cycle;Max_cycle;Signal;HPM_P1;HPM_P2
2022/07/06 00:02:20;;;;;;;2.65;1.08;;;13.50;99.90;;;;;;6190732;23;20382;-70
2022/07/06 00:04:46;;;;;;;3.00;1.48;;;13.50;99.90;;;;;;6190774;23;20438;-70
2022/07/06 00:07:13;;;;;;;3.40;0.90;;;13.50;99.90;;;;;;6217422;23;20023;-70
2022/07/06 00:09:40;;;;;;;5.50;1.45;;;13.60;99.90;;;;;;6217282;23;20013;-70
2022/07/06 00:12:06;;;;;;;3.35;1.10;;;13.60;99.90;;;;;;6217085;23;20024;-71
2022/07/06 00:14:33;;;;;;;3.72;1.00;;;13.60;99.90;;;;;;6217341;23;20123;-70
2022/07/06 00:16:59;;;;;;;4.47;1.15;;;13.50;99.90;;;;;;6217193;23;20028;-70
2022/07/06 00:19:24;;;;;;;6.32;1.48;;;13.50;99.90;;;;;;6217172;23;20013;-70
2022/07/06 00:21:50;;;;;;;6.55;1.63;;;13.50;99.90;;;;;;6217236;23;20334;-70
2022/07/06 00:24:17;;;;;;;2.83;1.20;;;13.80;99.90;;;;;;6217164;23;20038;-70
2022/07/06 00:26:44;;;;;;;2.95;1.13;;;13.40;99.90;;;;;;6217113;23;20017;-70
2022/07/06 00:29:09;;;;;;;;;;;13.40;99.90;;;;;;6217619;23;20020;-70
2022/07/06 00:31:35;;;;;;;4.63;1.30;;;14.10;99.90;;;;;;6216581;23;19962;-70
2022/07/06 00:34:01;;;;;;;3.85;1.15;;;13.40;99.90;;;;;;6217077;23;20438;-70
2022/07/06 00:36:27;;;;;;;3.67;1.70;;;13.40;99.90;;;;;;6190047;23;20434;-70
2022/07/06 00:38:53;;;;;;;;;;;13.40;99.90;;;;;;6217344;23;20378;-70
2022/07/06 00:41:18;;;;;;;2.67;1.20;;;13.40;99.90;;;;;;6216847;23;19916;-71
2022/07/06 00:43:55;;;;;;;8.57;1.40;;;13.40;99.90;;;;;;6189656;23;20048;-70
2022/07/06 00:46:27;;;;;;;2.63;0.98;;;13.40;99.90;;;;;;6216826;23;20020;-70
2022/07/06 00:48:53;;;;;;;1.95;0.90;;;13.40;99.90;;;;;;6216512;23;20449;-69
2022/07/06 00:51:21;;;;;;;1.17;0.50;;;13.50;99.90;;;;;;6216848;23;20021;-70
2022/07/06 00:53:48;;;;;;;1.77;0.50;;;13.50;99.90;;;;;;6216902;23;20062;-72
2022/07/06 00:56:14;;;;;;;3.20;0.40;;;13.40;99.90;;;;;;6190276;23;20024;-71
2022/07/06 00:58:40;;;;;;;;;;;13.40;99.90;;;;;;6217260;23;20016;-70
2022/07/06 01:01:05;;;;;;;5.03;0.60;;;13.40;99.90;;;;;;6216757;23;20344;-70
2022/07/06 01:03:32;;;;;;;1.05;0.50;;;13.40;99.90;;;;;;6216462;23;20051;-70
2022/07/06 01:05:58;;;;;;;1.38;0.60;;;13.40;99.90;;;;;;6216726;23;20019;-71
2022/07/06 01:08:24;;;;;;;1.38;0.70;;;13.40;99.90;;;;;;6216807;23;20056;-69
2022/07/06 01:10:50;;;;;;;2.53;0.73;;;13.40;99.90;;;;;;6190096;23;20342;-70
2022/07/06 01:13:15;;;;;;;1.08;0.65;;;13.50;99.90;;;;;;6216515;23;20255;-70
2022/07/06 01:15:41;;;;;;;3.63;1.08;;;13.50;99.90;;;;;;6216616;23;20110;-70
2022/07/06 01:18:11;;;;;;;2.50;0.60;;;14.40;99.90;;;;;;6216548;23;20086;-69
2022/07/06 01:20:36;;;;;;;2.42;0.70;;;13.50;99.90;;;;;;6216519;23;20055;-69
2022/07/06 01:23:02;;;;;;;1.70;0.63;;;13.60;99.90;;;;;;6189339;23;20032;-71
2022/07/06 01:25:28;;;;;;;2.60;0.70;;;13.60;99.90;;;;;;6190117;23;20070;-70
2022/07/06 01:27:54;;;;;;;5.97;0.70;;;13.70;99.90;;;;;;6216580;23;20025;-71
2022/07/06 01:30:20;;;;;;;3.08;0.77;;;14.00;99.90;;;;;;6189483;23;20456;-70
2022/07/06 01:32:46;;;;;;;2.72;0.90;;;13.80;99.90;;;;;;6216498;23;20020;-70
2022/07/06 01:35:13;;;;;;;3.70;0.55;;;13.70;99.90;;;;;;6189911;23;20055;-69
2022/07/06 01:37:40;;;;;;;1.88;0.70;;;13.60;99.90;;;;;;6216264;23;20016;-70
2022/07/06 01:40:08;;;;;;;1.58;0.60;;;13.60;99.90;;;;;;6216323;23;20059;-70
2022/07/06 01:42:34;;;;;;;1.63;0.60;;;13.60;99.90;;;;;;6189607;23;20084;-69
2022/07/06 01:45:01;;;;;;;1.48;0.65;;;13.60;99.90;;;;;;6189692;23;20024;-70
2022/07/06 01:47:27;;;;;;;1.48;0.55;;;13.60;99.90;;;;;;6216316;23;20020;-70
2022/07/06 01:49:52;;;;;;;2.30;0.50;;;13.00;99.90;;;;;;6216402;23;20013;-69
2022/07/06 01:52:18;;;;;;;2.83;0.60;;;13.60;99.90;;;;;;6189813;23;20020;-69
2022/07/06 01:54:44;;;;;;;1.95;0.60;;;14.10;99.90;;;;;;6216345;23;20334;-70
2022/07/06 01:57:10;;;;;;;0.95;0.40;;;13.60;99.90;;;;;;6216221;23;20390;-70
2022/07/06 01:59:35;;;;;;;2.17;0.90;;;13.90;99.90;;;;;;6216228;23;20020;-71
2022/07/06 02:02:01;;;;;;;3.95;0.80;;;13.60;99.90;;;;;;6216281;23;20027;-70
2022/07/06 02:04:27;;;;;;;3.95;0.75;;;13.60;99.90;;;;;;6216277;23;20020;-69
2022/07/06 02:06:53;;;;;;;2.58;1.10;;;13.60;99.90;;;;;;6216250;23;20438;-70
2022/07/06 02:09:18;;;;;;;6.13;1.30;;;13.60;99.90;;;;;;6216140;23;20012;-70
2022/07/06 02:11:44;;;;;;;8.88;1.15;;;13.60;99.90;;;;;;6216026;23;20036;-69
2022/07/06 02:14:10;;;;;;;3.00;0.80;;;13.60;99.90;;;;;;6216373;23;20074;-70
2022/07/06 02:16:36;;;;;;;2.92;1.10;;;13.60;99.90;;;;;;6216139;23;20445;-70
2022/07/06 02:19:01;;;;;;;3.50;1.35;;;13.60;99.90;;;;;;6215976;23;20449;-70
2022/07/06 02:21:27;;;;;;;3.55;0.90;;;13.50;99.90;;;;;;6216510;23;20443;-70
2022/07/06 02:23:53;;;;;;;1.77;0.95;;;13.60;99.90;;;;;;6189171;23;20020;-69
2022/07/06 02:26:19;;;;;;;2.05;0.85;;;13.50;99.90;;;;;;6189418;23;20059;-70
2022/07/06 02:28:47;;;;;;;2.85;1.05;;;13.50;99.90;;;;;;6216097;23;20027;-70
2022/07/06 02:31:13;;;;;;;4.40;1.38;;;13.50;99.90;;;;;;6215992;23;20016;-69
2022/07/06 02:33:39;;;;;;;;;;;13.50;99.90;;;;;;6189910;23;20017;-70
2022/07/06 02:36:05;;;;;;;7.40;1.20;;;13.50;99.90;;;;;;6215977;23;20348;-71
2022/07/06 02:38:31;;;;;;;3.17;1.00;;;13.50;99.90;;;;;;6215587;23;20020;-69
2022/07/06 02:40:56;;;;;;;2.97;1.48;;;13.40;99.90;;;;;;6215805;23;20071;-70
2022/07/06 02:43:22;;;;;;;3.85;1.88;;;13.40;99.90;;;;;;6215831;23;20017;-69
2022/07/06 02:45:47;;;;;;;4.65;1.08;;;13.50;99.90;;;;;;6215533;23;20454;-70
2022/07/06 02:48:13;;;;;;;3.22;1.08;;;13.40;99.90;;;;;;6216259;23;20017;-70
2022/07/06 02:50:39;;;;;;;3.15;0.98;;;13.40;99.90;;;;;;6215924;23;20051;-69
2022/07/06 02:53:05;;;;;;;5.20;0.90;;;13.40;99.90;;;;;;6216014;23;20102;-69
2022/07/06 02:55:30;;;;;;;3.53;0.90;;;13.40;99.90;;;;;;6191455;23;20052;-70
2022/07/06 02:57:56;;;;;;;1.75;0.73;;;13.40;99.90;;;;;;6190978;23;20031;-71
2022/07/06 03:00:22;;;;;;;3.35;0.85;;;13.30;99.90;;;;;;6217806;23;20015;-69
2022/07/06 03:02:47;;;;;;;2.88;0.70;;;13.40;99.90;;;;;;6217891;23;20021;-69
2022/07/06 03:05:13;;;;;;;3.15;1.00;;;13.40;99.90;;;;;;6217971;23;20051;-70
2022/07/06 03:07:39;;;;;;;1.98;1.08;;;13.40;99.90;;;;;;6218005;23;20044;-70
2022/07/06 03:10:05;;;;;;;3.15;1.08;;;13.40;99.90;;;;;;6217965;23;20024;-70
2022/07/06 03:12:30;;;;;;;4.60;0.98;;;13.40;99.90;;;;;;6191134;23;20084;-70
2022/07/06 03:14:56;;;;;;;2.75;1.00;;;13.40;99.90;;;;;;6217963;23;20059;-69
2022/07/06 03:17:22;;;;;;;3.65;0.82;;;13.40;99.90;;;;;;6217815;23;20021;-70
2022/07/06 03:19:47;;;;;;;4.40;1.10;;;13.40;99.90;;;;;;6217670;23;20009;-71
2022/07/06 03:22:13;;;;;;;1.85;0.85;;;13.30;99.90;;;;;;6217838;23;20377;-70
2022/07/06 03:24:38;;;;;;;2.92;1.20;;;13.30;99.90;;;;;;6217748;23;20012;-70
2022/07/06 03:27:04;;;;;;;3.90;1.13;;;13.30;99.90;;;;;;6191148;23;20131;-71
2022/07/06 03:29:30;;;;;;;2.58;1.25;;;13.30;99.90;;;;;;6217661;23;20044;-70
2022/07/06 03:31:56;;;;;;;2.17;0.93;;;13.40;99.90;;;;;;6217299;23;20410;-70
2022/07/06 03:34:22;;;;;;;7.22;1.27;;;13.40;99.90;;;;;;6190630;23;20016;-69
2022/07/06 03:36:47;;;;;;;2.08;1.00;;;13.30;99.90;;;;;;6191246;23;20017;-70
2022/07/06 03:39:13;;;;;;;3.53;1.15;;;13.30;99.90;;;;;;6216989;23;20023;-70
2022/07/06 03:41:38;;;;;;;2.70;1.20;;;13.80;99.90;;;;;;6217428;23;20052;-70
2022/07/06 03:44:04;;;;;;;3.90;1.13;;;13.30;99.90;;;;;;6166030;23;20016;-69
2022/07/06 03:46:30;;;;;;;3.03;0.90;;;13.20;99.90;;;;;;6217524;23;20021;-70
2022/07/06 03:48:56;;;;;;;3.53;0.88;;;13.20;99.90;;;;;;6217479;23;20057;-71
2022/07/06 03:51:21;;;;;;;2.58;1.33;;;13.20;99.90;;;;;;6217491;23;20009;-71
2022/07/06 03:53:47;;;;;;;2.75;1.17;;;13.10;99.90;;;;;;6217503;23;20063;-70
2022/07/06 03:56:28;;;;;;;4.47;1.60;;;13.10;99.90;;;;;;6217304;23;20518;-69
2022/07/06 03:58:58;;;;;;;6.85;1.38;;;13.10;99.90;;;;;;6217434;23;20438;-69
2022/07/06 04:01:23;;;;;;;4.32;1.00;;;13.10;99.90;;;;;;6190050;23;20019;-70
2022/07/06 04:03:49;;;;;;;3.50;1.27;;;13.00;99.90;;;;;;6190489;23;20016;-70
2022/07/06 04:06:15;;;;;;;4.60;1.23;;;13.00;99.90;;;;;;6217300;23;20017;-70
2022/07/06 04:08:41;;;;;;;2.72;1.20;;;13.00;99.90;;;;;;6217361;23;20125;-71
2022/07/06 04:11:06;;;;;;;6.05;1.10;;;13.70;99.90;;;;;;6217229;23;20012;-70
2022/07/06 04:13:32;;;;;;;3.83;1.13;;;13.00;99.90;;;;;;6190578;23;20021;-70
2022/07/06 04:15:58;;;;;;;4.68;1.05;;;13.00;99.90;;;;;;6217255;23;20048;-70
2022/07/06 04:18:24;;;;;;;2.53;1.13;;;13.00;99.90;;;;;;6217231;23;20067;-70
2022/07/06 04:20:49;;;;;;;4.15;1.00;;;13.00;99.90;;;;;;6190489;23;20364;-70
2022/07/06 04:23:15;;;;;;;11.07;1.52;;;13.00;99.90;;;;;;6190716;23;20020;-71
2022/07/06 04:25:40;;;;;;;2.83;1.13;;;13.00;99.90;;;;;;6217201;23;20017;-70
2022/07/06 04:28:06;;;;;;;2.80;0.95;;;13.00;99.90;;;;;;6217009;23;20028;-69
2022/07/06 04:30:32;;;;;;;4.70;2.67;;;13.00;99.90;;;;;;6190659;23;20020;-69
2022/07/06 04:32:57;;;;;;;3.20;0.80;;;13.00;99.90;;;;;;6190675;23;20087;-70
2022/07/06 04:35:23;;;;;;;3.35;1.52;;;13.00;99.90;;;;;;6216587;23;20028;-69
2022/07/06 04:37:49;;;;;;;3.03;0.90;;;13.00;99.90;;;;;;6216960;23;20027;-71
2022/07/06 04:40:15;;;;;;;3.83;0.88;;;12.90;99.90;;;;;;6216918;23;20338;-70
2022/07/06 04:42:41;;;;;;;4.40;1.52;;;12.90;99.90;;;;;;6216929;23;20542;-70
2022/07/06 04:45:07;;;;;;;1.10;0.77;;;12.90;99.90;;;;;;6190535;23;20099;-69
2022/07/06 04:47:33;;;;;;;2.75;1.10;;;12.90;99.90;;;;;;6216880;23;20019;-70
2022/07/06 04:49:58;;;;;;;3.13;1.00;;;13.10;99.90;;;;;;6216936;23;20013;-70
2022/07/06 04:52:24;;;;;;;2.30;1.10;;;12.90;99.90;;;;;;6216905;23;20020;-69
2022/07/06 04:54:50;;;;;;;6.70;1.20;;;12.90;99.90;;;;;;6216906;23;20446;-69
2022/07/06 04:57:16;;;;;;;3.40;1.10;;;12.90;99.90;;;;;;6216818;23;20449;-69
2022/07/06 04:59:41;;;;;;;4.30;1.30;;;12.90;99.90;;;;;;6216717;23;20458;-70
2022/07/06 05:02:07;;;;;;;5.35;1.20;;;12.90;99.90;;;;;;6216847;23;20101;-70
2022/07/06 05:04:33;;;;;;;3.15;1.17;;;13.50;99.90;;;;;;6216801;23;20462;-69
2022/07/06 05:06:59;;;;;;;3.45;0.90;;;12.90;99.90;;;;;;6216770;23;20345;-69
2022/07/06 05:09:25;;;;;;;5.47;1.35;;;12.90;99.90;;;;;;6216725;23;20385;-69
2022/07/06 05:11:51;;;;;;;5.00;1.25;;;13.00;99.90;;;;;;6216613;23;20034;-70
2022/07/06 05:14:16;;;;;;;3.90;1.17;;;13.00;99.90;;;;;;6217091;23;20481;-70
2022/07/06 05:16:42;;;;;;;2.47;0.98;;;13.00;99.90;;;;;;6190015;23;20021;-69
2022/07/06 05:19:08;;;;;;;6.07;1.23;;;12.90;99.90;;;;;;6216538;23;20151;-70
2022/07/06 05:21:33;;;;;;;2.35;1.17;;;13.00;99.90;;;;;;6216605;23;20433;-70
2022/07/06 05:23:59;;;;;;;2.33;1.13;;;13.00;99.90;;;;;;6189966;23;20028;-70
2022/07/06 05:26:24;;;;;;;4.45;1.10;;;13.00;99.90;;;;;;6216494;23;20027;-71
2022/07/06 05:28:50;;;;;;;4.13;1.17;;;13.00;99.90;;;;;;6216597;23;20020;-70
2022/07/06 05:31:16;;;;;;;3.60;1.05;;;13.10;99.90;;;;;;6216582;23;20341;-70
2022/07/06 05:33:42;;;;;;;3.05;1.10;;;13.10;99.90;;;;;;6216611;23;20323;-70
2022/07/06 05:36:07;;;;;;;3.13;1.05;;;13.20;99.90;;;;;;6216393;23;20456;-68
2022/07/06 05:38:33;;;;;;;2.88;0.70;;;13.20;99.90;;;;;;6216399;23;20476;-69
2022/07/06 05:40:59;;;;;;;3.38;0.90;;;13.30;99.90;;;;;;6189289;23;20454;-69
2022/07/06 05:43:25;;;;;;;3.92;0.80;;;13.30;99.90;;;;;;6189616;23;20024;-70
2022/07/06 05:45:50;;;;;;;5.28;0.90;;;13.50;99.90;;;;;;6216453;23;20027;-71
2022/07/06 05:51:00;;;;;;;4.40;0.73;;;13.50;99.90;;;;;;6216229;23;20027;-70
2022/07/06 05:53:26;;;;;;;1.73;0.60;;;13.60;99.90;;;;;;6216429;23;20024;-70
2022/07/06 05:55:51;;;;;;;2.58;1.00;;;13.70;99.90;;;;;;6189773;23;20079;-70
2022/07/06 05:58:17;;;;;;;1.60;1.25;;;13.80;99.90;;;;;;6189567;23;20044;-70
2022/07/06 06:00:43;;;;;;;3.85;0.75;;;13.50;99.90;;;;;;6216136;23;20008;-69
2022/07/06 06:03:09;;;;;;;2.05;0.47;;;13.70;99.90;;;;;;6216223;23;20017;-70
2022/07/06 06:05:34;;;;;;;3.75;0.80;;;13.70;99.90;;;;;;6216218;23;20096;-70
2022/07/06 06:08:00;;;;;;;0.70;0.30;;;13.70;99.90;;;;;;6189635;23;20016;-68
2022/07/06 06:10:26;;;;;;;1.45;0.40;;;13.60;99.90;;;;;;6216188;23;20017;-70
2022/07/06 06:12:52;;;;;;;1.45;0.52;;;13.70;99.90;;;;;;6216052;23;20075;-70
2022/07/06 06:15:18;;;;;;;1.40;0.50;;;13.70;99.90;;;;;;6216378;23;20020;-70
2022/07/06 06:17:44;;;;;;;3.17;0.50;;;13.90;99.90;;;;;;6216162;23;20012;-70
2022/07/06 06:20:13;;;;;;;2.17;0.47;;;13.80;99.90;;;;;;6189450;23;20131;-70
2022/07/06 06:22:56;;;;;;;1.08;0.50;;;13.90;99.90;;;;;;6189087;23;20027;-70
2022/07/06 06:25:35;;;;;;;1.35;0.60;;;13.90;99.90;;;;;;6189528;23;20028;-69
2022/07/06 06:28:06;;;;;;;0.98;0.40;;;13.90;99.90;;;;;;6214186;23;20022;-70
2022/07/06 06:30:32;;;;;;;2.17;0.50;;;13.90;99.90;;;;;;6215964;23;20393;-70
2022/07/06 06:33:18;;;;;;;1.30;0.40;;;14.00;99.90;;;;;;6189202;23;20091;-70
2022/07/06 06:35:51;;;;;;;3.80;0.32;;;14.00;99.90;;;;;;6215479;23;20389;-71
2022/07/06 06:38:18;;;;;;;2.50;0.45;;;14.10;99.90;;;;;;6188880;23;20017;-69
2022/07/06 06:40:44;;;;;;;0.52;0.30;;;14.50;99.90;;;;;;6215614;23;20016;-69
2022/07/06 06:43:10;;;;;;;0.57;0.30;;;14.20;99.90;;;;;;6215519;23;20017;-70
2022/07/06 06:45:36;;;;;;;1.50;0.60;;;14.30;99.90;;;;;;6215928;23;20016;-71
2022/07/06 06:48:02;;;;;;;0.82;0.60;;;14.30;99.90;;;;;;6188292;23;20017;-70
2022/07/06 06:50:28;;;;;;;0.52;0.20;;;14.40;99.90;;;;;;6215783;23;20008;-70
2022/07/06 06:52:54;;;;;;;1.02;0.77;;;14.80;99.90;;;;;;6215892;23;20020;-70
2022/07/06 06:55:19;;;;;;;3.55;0.30;;;14.40;99.90;;;;;;6215958;23;20384;-69
2022/07/06 06:57:45;;;;;;;2.30;1.23;;;14.40;99.90;;;;;;6189077;23;20013;-70
2022/07/06 07:00:12;;;;;;;3.30;0.60;;;14.40;99.90;;;;;;6215666;23;20013;-70
2022/07/06 07:02:38;;;;;;;1.20;0.43;;;14.40;99.90;;;;;;6215896;23;20025;-70
2022/07/06 07:05:04;;;;;;;;;;;14.40;99.90;;;;;;6216334;23;20102;-72
2022/07/06 07:07:30;;;;;;;3.22;0.40;;;14.40;99.90;;;;;;6215713;23;19916;-69
2022/07/06 07:09:55;;;;;;;0.60;0.30;;;14.50;99.90;;;;;;6215543;23;20024;-70
2022/07/06 07:12:21;;;;;;;2.65;0.70;;;14.50;99.90;;;;;;6215640;23;20438;-71
2022/07/06 07:14:47;;;;;;;0.93;0.38;;;14.50;99.90;;;;;;6215290;23;20016;-70
2022/07/06 07:17:13;;;;;;;1.45;0.40;;;14.50;99.90;;;;;;6215839;23;20020;-69
2022/07/06 07:19:38;;;;;;;1.10;0.40;;;14.60;99.90;;;;;;6215652;23;20024;-70
2022/07/06 07:22:04;;;;;;;2.22;0.38;;;15.10;99.90;;;;;;6215749;23;20437;-70
2022/07/06 07:24:30;;;;;;;2.40;0.40;;;14.70;99.90;;;;;;6215656;23;20020;-71
2022/07/06 07:26:56;;;;;;;1.90;0.35;;;14.70;99.90;;;;;;6215585;23;20067;-72
2022/07/06 07:29:21;;;;;;;0.88;0.30;;;14.70;99.90;;;;;;6215681;23;20012;-72
2022/07/06 07:31:47;;;;;;;1.23;0.40;;;14.70;99.90;;;;;;6215650;23;20021;-71
2022/07/06 07:34:12;;;;;;;1.50;0.40;;;14.70;99.90;;;;;;6215746;23;20354;-70
2022/07/06 07:36:38;;;;;;;4.97;0.70;;;14.70;99.90;;;;;;6215775;23;20681;-71
2022/07/06 07:39:04;;;;;;;2.15;0.55;;;14.60;99.90;;;;;;6188496;23;20345;-72
2022/07/06 07:41:30;;;;;;;1.63;0.52;;;14.60;99.90;;;;;;6190637;23;20405;-70
2022/07/06 07:43:56;;;;;;;1.65;0.45;;;14.60;99.90;;;;;;6217195;23;20021;-71
2022/07/06 07:46:21;;;;;;;2.92;0.73;;;14.50;99.90;;;;;;6217524;23;20021;-70
2022/07/06 07:48:47;;;;;;;4.72;0.45;;;14.50;99.90;;;;;;6217484;23;20091;-71
2022/07/06 07:51:13;;;;;;;2.47;0.50;;;14.60;99.90;;;;;;6217460;23;20013;-70
2022/07/06 07:53:38;;;;;;;1.92;0.55;;;14.50;99.90;;;;;;6190665;23;20024;-70
2022/07/06 07:56:04;;;;;;;4.13;0.60;;;14.50;99.90;;;;;;6217289;23;20027;-70
2022/07/06 07:58:30;;;;;;;4.03;0.45;;;14.60;99.90;;;;;;6217313;23;20051;-70
2022/07/06 08:00:56;;;;;;;1.13;0.50;;;14.50;99.90;;;;;;6217208;23;20099;-69
2022/07/06 08:03:21;;;;;;;1.35;0.30;;;14.60;99.90;;;;;;6190636;23;20020;-70
2022/07/06 08:05:48;;;;;;;2.95;0.50;;;14.90;99.90;;;;;;6190600;23;20012;-71
2022/07/06 08:08:14;;;;;;;;;;;14.80;99.90;;;;;;6217947;23;20087;-70
2022/07/06 08:10:40;;;;;;;2.60;0.40;;;14.90;99.90;;;;;;6217318;23;19916;-69
2022/07/06 08:13:07;;;;;;;1.20;0.40;;;15.00;99.90;;;;;;6217059;23;20103;-71
2022/07/06 08:15:33;;;;;;;3.50;0.40;;;15.00;99.90;;;;;;6217381;23;20024;-70
2022/07/06 08:17:59;;;;;;;1.05;0.40;;;15.00;99.90;;;;;;6190604;23;20429;-71
2022/07/06 08:20:25;;;;;;;1.40;0.50;;;15.10;99.90;;;;;;6189773;23;20013;-70
2022/07/06 08:22:51;;;;;;;1.35;0.30;;;15.20;99.90;;;;;;6217212;23;20012;-70
2022/07/06 08:25:17;;;;;;;1.27;0.30;;;15.50;99.90;;;;;;6165597;23;20024;-71
2022/07/06 08:27:43;;;;;;;2.33;0.60;;;15.40;99.90;;;;;;6216448;23;20028;-70
2022/07/06 08:30:10;;;;;;;1.70;0.60;;;15.50;99.90;;;;;;6217181;23;20008;-70
2022/07/06 08:32:43;;;;;;;1.75;0.60;;;15.50;99.90;;;;;;6217023;23;20016;-70
2022/07/06 08:35:09;;;;;;;0.75;0.47;;;15.60;99.90;;;;;;6190670;23;20020;-69
2022/07/06 08:37:35;;;;;;;3.15;0.52;;;15.70;99.90;;;;;;6188580;23;20540;-70
2022/07/06 08:40:01;;;;;;;2.60;0.50;;;15.70;99.90;;;;;;6216752;23;20052;-72
2022/07/06 08:42:31;;;;;;;3.03;0.70;;;15.80;99.90;;;;;;6190322;23;20012;-71
2022/07/06 08:45:01;;;;;;;3.25;0.57;;;15.80;99.90;;;;;;6217202;23;20086;-73
2022/07/06 08:47:29;;;;;;;3.10;0.55;;;16.00;99.90;;;;;;6216774;23;20024;-70
2022/07/06 08:49:55;;;;;;;2.55;0.60;;;15.80;99.90;;;;;;6216919;23;20020;-70
2022/07/06 08:52:23;;;;;;;1.75;0.47;;;15.90;99.90;;;;;;6216335;23;20075;-70
2022/07/06 08:54:49;;;;;;;2.65;0.60;;;15.80;99.90;;;;;;6216904;23;20012;-72
2022/07/06 08:57:19;;;;;;;1.13;0.20;;;15.80;99.90;;;;;;6216768;23;20016;-70
2022/07/06 08:59:45;;;;;;;3.25;0.40;;;15.90;99.90;;;;;;6216551;23;20017;-71
2022/07/06 09:02:13;;;;;;;2.38;0.30;;;15.90;99.90;;;;;;6190052;23;20078;-71
2022/07/06 09:04:43;;;;;;;4.22;0.40;;;16.00;99.90;;;;;;6216707;23;20457;-71
2022/07/06 09:07:09;;;;;;;0.63;0.20;;;16.00;99.90;;;;;;6190213;23;20323;-72
2022/07/06 09:09:37;;;;;;;2.83;0.50;;;16.10;99.90;;;;;;6216831;23;20023;-71
2022/07/06 09:12:03;;;;;;;2.05;0.30;;;16.10;99.90;;;;;;6216630;23;20021;-73
2022/07/06 09:14:29;;;;;;;2.13;0.40;;;16.10;99.90;;;;;;6188193;23;20476;-71
2022/07/06 09:17:05;;;;;;;4.68;0.40;;;16.00;99.90;;;;;;6216678;23;20060;-71
2022/07/06 09:19:32;;;;;;;1.98;0.50;;;16.00;99.90;;;;;;6216639;23;20043;-72
2022/07/06 09:21:58;;;;;;;0.88;0.30;;;16.10;99.90;;;;;;6216556;23;20027;-72
2022/07/06 09:24:26;;;;;;;;;;;16.10;99.90;;;;;;6217133;23;20017;-71
2022/07/06 09:26:55;;;;;;;1.33;0.30;;;16.10;99.90;;;;;;6216169;23;19947;-71
2022/07/06 09:29:31;;;;;;;2.58;0.65;;;16.20;99.90;;;;;;6216379;23;20028;-71
2022/07/06 09:32:02;;;;;;;1.52;0.45;;;16.40;99.90;;;;;;6216473;23;20024;-72
2022/07/06 09:34:42;;;;;;;3.95;0.30;;;16.30;99.90;;;;;;6191023;23;20017;-71
2022/07/06 09:37:08;;;;;;;0.63;0.20;;;16.30;99.90;;;;;;6189891;23;20396;-71
2022/07/06 09:39:33;;;;;;;3.92;0.52;;;16.40;99.90;;;;;;6214709;23;20021;-72
2022/07/06 09:42:03;;;;;;;0.68;0.30;;;16.50;99.90;;;;;;6216188;23;20062;-72
2022/07/06 09:44:33;;;;;;;2.13;0.60;;;16.50;99.90;;;;;;6189455;23;20351;-71
2022/07/06 09:47:05;;;;;;;0.25;0.20;;;16.60;99.90;;;;;;6216283;23;20016;-72
2022/07/06 09:49:30;;;;;;;2.38;0.43;;;16.70;99.90;;;;;;6189588;23;20096;-70
2022/07/06 09:51:58;;;;;;;1.70;0.40;;;16.70;99.90;;;;;;6216258;23;20052;-72
2022/07/06 09:54:24;;;;;;;0.28;0.20;;;16.70;99.90;;;;;;6189626;23;20013;-71
2022/07/06 09:56:51;;;;;;;1.20;0.40;;;16.80;99.90;;;;;;6189555;23;20075;-72
2022/07/06 09:59:18;;;;;;;0.73;0.40;;;16.70;99.90;;;;;;6216052;23;20016;-73
2022/07/06 10:01:44;;;;;;;1.38;0.22;;;16.70;99.90;;;;;;6215810;23;20508;-72
2022/07/06 10:04:18;;;;;;;2.58;0.20;;;16.80;99.90;;;;;;6189470;23;20019;-72
2022/07/06 10:06:44;;;;;;;2.38;0.35;;;16.80;99.90;;;;;;6216303;23;20051;-73
2022/07/06 10:09:11;;;;;;;1.25;0.20;;;16.90;99.90;;;;;;6216121;23;20104;-71
2022/07/06 10:11:39;;;;;;;1.42;0.22;;;17.00;99.90;;;;;;6216056;23;20024;-71
2022/07/06 10:14:07;;;;;;;1.95;0.20;;;17.10;99.90;;;;;;6216103;23;20055;-71
2022/07/06 10:16:35;;;;;;;2.90;0.38;;;17.10;99.90;;;;;;6216066;23;20330;-71
2022/07/06 10:19:04;;;;;;;2.63;0.32;;;17.20;99.90;;;;;;6189456;23;20013;-72
2022/07/06 10:21:31;;;;;;;2.05;0.52;;;17.30;99.90;;;;;;6215922;23;20107;-71
2022/07/06 10:23:59;;;;;;;1.15;0.20;;;17.40;99.90;;;;;;6215999;23;20056;-71
2022/07/06 10:26:25;;;;;;;2.33;0.30;;;17.40;99.90;;;;;;6215945;23;20342;-71
2022/07/06 10:28:52;;;;;;;1.70;0.20;;;17.40;99.90;;;;;;6215951;23;20088;-71
2022/07/06 10:31:20;;;;;;;0.73;0.30;;;17.30;99.90;;;;;;6215987;23;20021;-71
2022/07/06 10:33:47;;;;;;;1.23;0.40;;;17.30;99.90;;;;;;6215959;23;20453;-75
2022/07/06 10:36:13;;;;;;;5.32;0.47;;;17.40;99.90;;;;;;6189331;23;20452;-72
2022/07/06 10:38:39;;;;;;;1.77;0.50;;;17.40;99.90;;;;;;6215867;23;20017;-73
2022/07/06 10:41:07;;;;;;;2.88;0.40;;;17.50;99.90;;;;;;6188057;23;20074;-73
2022/07/06 10:43:44;;;;;;;4.95;0.43;;;17.50;99.90;;;;;;6214325;23;20055;-71
2022/07/06 10:46:13;;;;;;;0.73;0.20;;;17.50;99.90;;;;;;6213512;23;20056;-72
2022/07/06 10:48:43;;;;;;;1.02;0.30;;;17.50;99.90;;;;;;6213466;23;20077;-70
2022/07/06 10:51:12;;;;;;;1.02;0.30;;;17.50;99.90;;;;;;6212659;23;20078;-71
2022/07/06 10:53:39;;;;;;;5.85;0.50;;;17.50;99.90;;;;;;6212321;23;20021;-72
2022/07/06 10:56:07;;;;;;;0.95;0.32;;;17.50;99.90;;;;;;6212391;23;20024;-71
2022/07/06 10:58:48;;;;;;;2.03;0.40;;;17.40;99.90;;;;;;6212532;23;20468;-71
2022/07/06 11:01:15;;;;;;;2.33;0.30;;;17.30;99.90;;;;;;6214276;23;20055;-71
2022/07/06 11:03:44;;;;;;;2.85;0.30;;;17.30;99.90;;;;;;6215485;23;20052;-72
2022/07/06 11:06:23;;;;;;;2.13;0.32;;;17.30;99.90;;;;;;6215007;23;20056;-71
2022/07/06 11:08:53;;;;;;;1.40;0.38;;;17.40;99.90;;;;;;6215136;23;20403;-71
2022/07/06 11:11:32;;;;;;;1.77;0.52;;;17.40;99.90;;;;;;6215564;23;20129;-71
2022/07/06 11:14:08;;;;;;;1.95;0.30;;;17.50;99.90;;;;;;6215177;23;20016;-71
2022/07/06 11:16:37;;;;;;;0.88;0.30;;;17.50;99.90;;;;;;6217546;23;20017;-71
2022/07/06 11:19:05;;;;;;;1.88;0.35;;;17.40;99.90;;;;;;6217070;23;20434;-72
2022/07/06 11:21:46;;;;;;;2.95;0.40;;;17.40;99.90;;;;;;6216918;23;20017;-71
2022/07/06 11:24:22;;;;;;;6.38;0.45;;;17.50;99.90;;;;;;6217424;23;20021;-71
2022/07/06 11:26:49;;;;;;;;;;;17.60;99.90;;;;;;6217544;23;20327;-71
2022/07/06 11:29:17;;;;;;;16.05;0.90;;;17.70;99.90;;;;;;6217318;23;19916;-71
2022/07/06 11:31:45;;;;;;;2.45;0.40;;;17.80;99.90;;;;;;6217353;23;20016;-71
2022/07/06 11:34:17;;;;;;;3.53;0.60;;;17.80;99.90;;;;;;6217447;23;20052;-73
2022/07/06 11:36:43;;;;;;;1.55;0.40;;;18.00;99.90;;;;;;6217413;23;20020;-71
2022/07/06 11:39:10;;;;;;;1.27;0.60;;;17.90;99.90;;;;;;6217328;23;20020;-71
2022/07/06 11:41:37;;;;;;;1.77;0.25;;;17.90;99.90;;;;;;6216567;23;20027;-70
2022/07/06 11:44:04;;;;;;;0.47;0.35;;;17.90;99.90;;;;;;6216686;23;20017;-71
2022/07/06 11:46:35;;;;;;;2.47;0.60;;;17.90;99.90;;;;;;6217187;23;20076;-75
2022/07/06 11:49:05;;;;;;;0.30;0.30;;;17.80;99.90;;;;;;6217031;23;20393;-72
2022/07/06 11:51:39;;;;;;;1.92;0.60;;;17.80;99.90;;;;;;6217091;23;20320;-72
2022/07/06 11:54:15;;;;;;;1.90;0.43;;;17.80;99.90;;;;;;6190785;23;20021;-71
2022/07/06 11:56:53;;;;;;;4.13;0.50;;;17.90;99.90;;;;;;6216626;23;20090;-71
2022/07/06 11:59:31;;;;;;;1.42;0.50;;;17.90;99.90;;;;;;6216508;23;20092;-71
2022/07/06 12:02:04;;;;;;;1.77;0.60;;;18.00;99.90;;;;;;6217091;23;20086;-72
2022/07/06 12:04:32;;;;;;;1.70;0.80;;;18.00;99.90;;;;;;6216994;23;20021;-71
2022/07/06 12:07:11;;;;;;;2.08;0.40;;;18.00;99.90;;;;;;6217112;23;20012;-71
2022/07/06 12:09:41;;;;;;;1.58;0.45;;;18.00;99.90;;;;;;6217440;23;20350;-71
2022/07/06 12:12:09;;;;;;;0.98;0.40;;;18.10;99.90;;;;;;6190487;23;20465;-71
2022/07/06 12:14:38;;;;;;;1.65;0.50;;;18.10;99.90;;;;;;6190420;23;20020;-71
2022/07/06 12:17:09;;;;;;;3.58;0.52;;;18.10;99.90;;;;;;6216623;23;20021;-71
2022/07/06 12:19:38;;;;;;;1.80;0.35;;;18.10;99.90;;;;;;6216831;23;20059;-71
2022/07/06 12:22:06;;;;;;;2.03;0.40;;;18.10;99.90;;;;;;6217013;23;20017;-71
2022/07/06 12:24:34;;;;;;;2.88;0.50;;;18.20;99.90;;;;;;6216488;23;20020;-71
2022/07/06 12:27:18;;;;;;;3.45;0.43;;;18.20;99.90;;;;;;6216052;23;20020;-72
2022/07/06 12:29:45;;;;;;;1.02;0.40;;;18.10;99.90;;;;;;6216709;23;20331;-71
2022/07/06 12:32:19;;;;;;;2.88;0.40;;;18.10;99.90;;;;;;6216663;23;20032;-71
2022/07/06 12:34:47;;;;;;;4.35;0.55;;;18.10;99.90;;;;;;6165631;23;20013;-71
2022/07/06 12:37:15;;;;;;;2.50;0.60;;;18.50;99.90;;;;;;6216734;23;20476;-71
2022/07/06 12:39:47;;;;;;;2.33;0.47;;;17.90;99.90;;;;;;6216120;23;20013;-71
2022/07/06 12:42:16;;;;;;;4.75;0.52;;;17.90;99.90;;;;;;6216247;23;20092;-72
2022/07/06 12:44:46;;;;;;;0.73;0.30;;;17.90;99.90;;;;;;6216058;23;20047;-71
2022/07/06 12:47:16;;;;;;;1.58;0.50;;;17.90;99.90;;;;;;6216846;23;20024;-71
2022/07/06 12:49:42;;;;;;;3.78;0.40;;;18.00;99.90;;;;;;6190230;23;20028;-71
2022/07/06 12:52:13;;;;;;;0.43;0.30;;;18.10;99.90;;;;;;6216715;23;20013;-71